sensor_id;sensor_type;location;lat;lon;timestamp;P1;durP1;ratioP1;P2;durP2;ratioP2
27489;SDS011;14925;51.026;13.752;2022-12-18T00:00:27;120.03;;;42.88;;
27489;SDS011;14925;51.026;13.752;2022-12-18T00:02:53;98.43;;;39.40;;
27489;SDS011;14925;51.026;13.752;2022-12-18T00:05:18;102.75;;;38.63;;
27489;SDS011;14925;51.026;13.752;2022-12-18T00:07:43;106.00;;;41.42;;
27489;SDS011;14925;51.026;13.752;2022-12-18T00:10:09;100.05;;;40.08;;
27489;SDS011;14925;51.026;13.752;2022-12-18T00:12:34;111.22;;;42.05;;
27489;SDS011;14925;51.026;13.752;2022-12-18T00:15:00;99.88;;;39.45;;
27489;SDS011;14925;51.026;13.752;2022-12-18T00:17:25;97.18;;;38.92;;
27489;SDS011;14925;51.026;13.752;2022-12-18T00:19:50;90.60;;;36.03;;
27489;SDS011;14925;51.026;13.752;2022-12-18T00:22:16;87.72;;;35.85;;
27489;SDS011;14925;51.026;13.752;2022-12-18T00:24:41;95.00;;;37.25;;
27489;SDS011;14925;51.026;13.752;2022-12-18T00:27:06;99.10;;;37.25;;
27489;SDS011;14925;51.026;13.752;2022-12-18T00:29:32;93.93;;;36.95;;
27489;SDS011;14925;51.026;13.752;2022-12-18T00:31:57;89.20;;;36.05;;
27489;SDS011;14925;51.026;13.752;2022-12-18T00:34:23;96.82;;;36.95;;
27489;SDS011;14925;51.026;13.752;2022-12-18T00:36:48;94.40;;;37.03;;
27489;SDS011;14925;51.026;13.752;2022-12-18T00:39:13;99.15;;;36.70;;
27489;SDS011;14925;51.026;13.752;2022-12-18T00:41:39;96.25;;;37.65;;
27489;SDS011;14925;51.026;13.752;2022-12-18T00:44:23;84.28;;;33.33;;
27489;SDS011;14925;51.026;13.752;2022-12-18T00:46:48;85.35;;;33.83;;
27489;SDS011;14925;51.026;13.752;2022-12-18T00:49:15;89.78;;;35.65;;
27489;SDS011;14925;51.026;13.752;2022-12-18T00:51:43;88.57;;;33.65;;
27489;SDS011;14925;51.026;13.752;2022-12-18T00:54:09;93.38;;;33.80;;
27489;SDS011;14925;51.026;13.752;2022-12-18T00:56:40;90.38;;;32.42;;
27489;SDS011;14925;51.026;13.752;2022-12-18T00:59:06;79.97;;;32.58;;
27489;SDS011;14925;51.026;13.752;2022-12-18T01:01:31;75.32;;;31.15;;
27489;SDS011;14925;51.026;13.752;2022-12-18T01:03:57;75.80;;;30.88;;
27489;SDS011;14925;51.026;13.752;2022-12-18T01:06:24;71.25;;;30.00;;
27489;SDS011;14925;51.026;13.752;2022-12-18T01:08:49;79.22;;;30.90;;
27489;SDS011;14925;51.026;13.752;2022-12-18T01:11:16;68.65;;;28.10;;
27489;SDS011;14925;51.026;13.752;2022-12-18T01:13:42;77.38;;;29.95;;
27489;SDS011;14925;51.026;13.752;2022-12-18T01:16:11;77.60;;;29.63;;
27489;SDS011;14925;51.026;13.752;2022-12-18T01:18:37;76.43;;;29.35;;
27489;SDS011;14925;51.026;13.752;2022-12-18T01:21:07;76.68;;;30.60;;
27489;SDS011;14925;51.026;13.752;2022-12-18T01:23:33;72.68;;;29.58;;
27489;SDS011;14925;51.026;13.752;2022-12-18T01:26:03;70.80;;;29.13;;
27489;SDS011;14925;51.026;13.752;2022-12-18T01:28:32;67.40;;;29.25;;
27489;SDS011;14925;51.026;13.752;2022-12-18T01:31:08;78.72;;;29.95;;
27489;SDS011;14925;51.026;13.752;2022-12-18T01:33:44;77.03;;;28.95;;
27489;SDS011;14925;51.026;13.752;2022-12-18T01:36:17;73.72;;;28.80;;
27489;SDS011;14925;51.026;13.752;2022-12-18T01:38:47;72.35;;;28.25;;
27489;SDS011;14925;51.026;13.752;2022-12-18T01:41:13;75.15;;;28.63;;
27489;SDS011;14925;51.026;13.752;2022-12-18T01:43:43;68.53;;;27.45;;
27489;SDS011;14925;51.026;13.752;2022-12-18T01:46:10;66.20;;;26.65;;
27489;SDS011;14925;51.026;13.752;2022-12-18T01:48:36;72.82;;;26.48;;
27489;SDS011;14925;51.026;13.752;2022-12-18T01:51:02;64.30;;;26.00;;
27489;SDS011;14925;51.026;13.752;2022-12-18T01:53:27;63.45;;;26.70;;
27489;SDS011;14925;51.026;13.752;2022-12-18T01:55:53;70.22;;;27.00;;
27489;SDS011;14925;51.026;13.752;2022-12-18T01:58:22;67.00;;;26.17;;
27489;SDS011;14925;51.026;13.752;2022-12-18T02:00:50;75.38;;;27.52;;
27489;SDS011;14925;51.026;13.752;2022-12-18T02:03:15;67.70;;;26.83;;
27489;SDS011;14925;51.026;13.752;2022-12-18T02:05:44;66.75;;;26.73;;
27489;SDS011;14925;51.026;13.752;2022-12-18T02:08:20;67.47;;;26.75;;
27489;SDS011;14925;51.026;13.752;2022-12-18T02:14:11;66.00;;;26.30;;
27489;SDS011;14925;51.026;13.752;2022-12-18T02:22:30;66.50;;;26.60;;
27489;SDS011;14925;51.026;13.752;2022-12-18T02:27:31;68.68;;;25.67;;
27489;SDS011;14925;51.026;13.752;2022-12-18T02:30:01;62.60;;;25.42;;
27489;SDS011;14925;51.026;13.752;2022-12-18T02:32:28;68.90;;;26.90;;
27489;SDS011;14925;51.026;13.752;2022-12-18T02:34:57;63.45;;;25.55;;
27489;SDS011;14925;51.026;13.752;2022-12-18T02:37:23;66.82;;;25.75;;
27489;SDS011;14925;51.026;13.752;2022-12-18T02:39:50;62.30;;;25.75;;
27489;SDS011;14925;51.026;13.752;2022-12-18T02:42:18;60.50;;;23.92;;
27489;SDS011;14925;51.026;13.752;2022-12-18T02:44:47;61.50;;;25.23;;
27489;SDS011;14925;51.026;13.752;2022-12-18T02:47:15;65.25;;;24.67;;
27489;SDS011;14925;51.026;13.752;2022-12-18T02:49:52;58.15;;;24.77;;
27489;SDS011;14925;51.026;13.752;2022-12-18T02:52:47;61.97;;;24.25;;
27489;SDS011;14925;51.026;13.752;2022-12-18T02:58:13;63.17;;;24.40;;
27489;SDS011;14925;51.026;13.752;2022-12-18T03:03:38;66.85;;;25.42;;
27489;SDS011;14925;51.026;13.752;2022-12-18T03:06:08;62.38;;;24.45;;
27489;SDS011;14925;51.026;13.752;2022-12-18T03:08:37;60.75;;;24.38;;
27489;SDS011;14925;51.026;13.752;2022-12-18T03:11:06;64.70;;;23.33;;
27489;SDS011;14925;51.026;13.752;2022-12-18T03:16:11;60.42;;;25.02;;
27489;SDS011;14925;51.026;13.752;2022-12-18T03:18:49;63.40;;;24.20;;
27489;SDS011;14925;51.026;13.752;2022-12-18T03:21:21;59.67;;;23.42;;
27489;SDS011;14925;51.026;13.752;2022-12-18T03:23:49;57.67;;;24.02;;
27489;SDS011;14925;51.026;13.752;2022-12-18T03:26:18;63.70;;;25.35;;
27489;SDS011;14925;51.026;13.752;2022-12-18T03:28:46;64.90;;;23.40;;
27489;SDS011;14925;51.026;13.752;2022-12-18T03:31:15;58.97;;;24.48;;
27489;SDS011;14925;51.026;13.752;2022-12-18T03:34:03;60.75;;;23.75;;
27489;SDS011;14925;51.026;13.752;2022-12-18T03:36:29;64.53;;;24.17;;
27489;SDS011;14925;51.026;13.752;2022-12-18T03:38:57;59.33;;;23.58;;
27489;SDS011;14925;51.026;13.752;2022-12-18T03:41:33;64.40;;;24.48;;
27489;SDS011;14925;51.026;13.752;2022-12-18T03:44:08;62.25;;;23.92;;
27489;SDS011;14925;51.026;13.752;2022-12-18T03:46:51;56.90;;;22.85;;
27489;SDS011;14925;51.026;13.752;2022-12-18T03:52:20;61.58;;;24.52;;
27489;SDS011;14925;51.026;13.752;2022-12-18T03:54:51;61.88;;;23.92;;
27489;SDS011;14925;51.026;13.752;2022-12-18T03:57:21;57.42;;;23.08;;
27489;SDS011;14925;51.026;13.752;2022-12-18T03:59:49;59.08;;;23.98;;
27489;SDS011;14925;51.026;13.752;2022-12-18T04:02:17;56.22;;;23.17;;
27489;SDS011;14925;51.026;13.752;2022-12-18T04:04:43;61.33;;;23.30;;
27489;SDS011;14925;51.026;13.752;2022-12-18T04:07:10;59.60;;;23.17;;
27489;SDS011;14925;51.026;13.752;2022-12-18T04:09:35;54.83;;;21.75;;
27489;SDS011;14925;51.026;13.752;2022-12-18T04:12:02;52.17;;;22.42;;
27489;SDS011;14925;51.026;13.752;2022-12-18T04:14:27;55.22;;;22.35;;
27489;SDS011;14925;51.026;13.752;2022-12-18T04:16:52;59.92;;;21.92;;
27489;SDS011;14925;51.026;13.752;2022-12-18T04:19:18;55.83;;;20.75;;
27489;SDS011;14925;51.026;13.752;2022-12-18T04:21:43;57.35;;;21.25;;
27489;SDS011;14925;51.026;13.752;2022-12-18T04:24:09;53.10;;;22.13;;
27489;SDS011;14925;51.026;13.752;2022-12-18T04:26:34;54.47;;;20.60;;
27489;SDS011;14925;51.026;13.752;2022-12-18T04:29:00;53.67;;;20.75;;
27489;SDS011;14925;51.026;13.752;2022-12-18T04:31:25;55.80;;;21.92;;
27489;SDS011;14925;51.026;13.752;2022-12-18T04:33:51;50.40;;;20.60;;
27489;SDS011;14925;51.026;13.752;2022-12-18T04:36:16;58.33;;;21.67;;
27489;SDS011;14925;51.026;13.752;2022-12-18T04:38:42;47.63;;;19.42;;
27489;SDS011;14925;51.026;13.752;2022-12-18T04:41:07;51.65;;;19.70;;
27489;SDS011;14925;51.026;13.752;2022-12-18T04:43:32;50.47;;;20.33;;
27489;SDS011;14925;51.026;13.752;2022-12-18T04:46:04;54.72;;;21.02;;
27489;SDS011;14925;51.026;13.752;2022-12-18T04:48:31;55.35;;;20.73;;
27489;SDS011;14925;51.026;13.752;2022-12-18T04:50:57;54.22;;;21.08;;
27489;SDS011;14925;51.026;13.752;2022-12-18T04:53:22;51.90;;;20.02;;
27489;SDS011;14925;51.026;13.752;2022-12-18T04:55:48;54.10;;;20.75;;
27489;SDS011;14925;51.026;13.752;2022-12-18T04:58:13;47.70;;;19.20;;
27489;SDS011;14925;51.026;13.752;2022-12-18T05:00:39;49.25;;;19.17;;
27489;SDS011;14925;51.026;13.752;2022-12-18T05:03:04;46.15;;;18.58;;
27489;SDS011;14925;51.026;13.752;2022-12-18T05:05:29;42.97;;;18.08;;
27489;SDS011;14925;51.026;13.752;2022-12-18T05:07:55;50.70;;;18.98;;
27489;SDS011;14925;51.026;13.752;2022-12-18T05:10:20;47.72;;;18.90;;
27489;SDS011;14925;51.026;13.752;2022-12-18T05:12:46;48.53;;;18.20;;
27489;SDS011;14925;51.026;13.752;2022-12-18T05:15:26;45.70;;;17.42;;
27489;SDS011;14925;51.026;13.752;2022-12-18T05:17:52;43.10;;;16.52;;
27489;SDS011;14925;51.026;13.752;2022-12-18T05:20:17;52.72;;;18.83;;
27489;SDS011;14925;51.026;13.752;2022-12-18T05:22:43;48.63;;;18.15;;
27489;SDS011;14925;51.026;13.752;2022-12-18T05:25:09;44.70;;;18.27;;
27489;SDS011;14925;51.026;13.752;2022-12-18T05:27:34;47.90;;;18.25;;
27489;SDS011;14925;51.026;13.752;2022-12-18T05:30:00;40.08;;;17.08;;
27489;SDS011;14925;51.026;13.752;2022-12-18T05:32:25;43.17;;;17.80;;
27489;SDS011;14925;51.026;13.752;2022-12-18T05:34:50;46.72;;;16.70;;
27489;SDS011;14925;51.026;13.752;2022-12-18T05:37:16;41.00;;;16.85;;
27489;SDS011;14925;51.026;13.752;2022-12-18T05:39:42;43.35;;;16.40;;
27489;SDS011;14925;51.026;13.752;2022-12-18T05:42:08;38.38;;;16.20;;
27489;SDS011;14925;51.026;13.752;2022-12-18T05:44:33;50.45;;;18.15;;
27489;SDS011;14925;51.026;13.752;2022-12-18T05:46:59;37.28;;;16.30;;
27489;SDS011;14925;51.026;13.752;2022-12-18T05:49:24;41.80;;;16.48;;
27489;SDS011;14925;51.026;13.752;2022-12-18T05:51:49;38.80;;;16.15;;
27489;SDS011;14925;51.026;13.752;2022-12-18T05:54:15;42.65;;;16.50;;
27489;SDS011;14925;51.026;13.752;2022-12-18T05:56:41;42.28;;;17.67;;
27489;SDS011;14925;51.026;13.752;2022-12-18T05:59:06;42.25;;;15.48;;
27489;SDS011;14925;51.026;13.752;2022-12-18T06:01:31;42.25;;;17.10;;
27489;SDS011;14925;51.026;13.752;2022-12-18T06:03:57;38.00;;;16.20;;
27489;SDS011;14925;51.026;13.752;2022-12-18T06:06:23;38.47;;;14.95;;
27489;SDS011;14925;51.026;13.752;2022-12-18T06:08:50;38.80;;;15.40;;
27489;SDS011;14925;51.026;13.752;2022-12-18T06:11:17;38.20;;;15.25;;
27489;SDS011;14925;51.026;13.752;2022-12-18T06:13:44;44.35;;;15.60;;
27489;SDS011;14925;51.026;13.752;2022-12-18T06:16:09;38.78;;;16.00;;
27489;SDS011;14925;51.026;13.752;2022-12-18T06:18:35;46.13;;;17.80;;
27489;SDS011;14925;51.026;13.752;2022-12-18T06:21:03;45.30;;;18.42;;
27489;SDS011;14925;51.026;13.752;2022-12-18T06:23:29;48.33;;;19.95;;
27489;SDS011;14925;51.026;13.752;2022-12-18T06:25:54;53.45;;;20.15;;
27489;SDS011;14925;51.026;13.752;2022-12-18T06:28:20;52.83;;;21.00;;
27489;SDS011;14925;51.026;13.752;2022-12-18T06:30:46;53.08;;;21.75;;
27489;SDS011;14925;51.026;13.752;2022-12-18T06:33:13;47.60;;;19.90;;
27489;SDS011;14925;51.026;13.752;2022-12-18T06:35:39;49.25;;;19.13;;
27489;SDS011;14925;51.026;13.752;2022-12-18T06:38:04;50.55;;;18.60;;
27489;SDS011;14925;51.026;13.752;2022-12-18T06:40:33;52.67;;;20.52;;
27489;SDS011;14925;51.026;13.752;2022-12-18T06:42:58;65.10;;;26.35;;
27489;SDS011;14925;51.026;13.752;2022-12-18T06:45:24;57.83;;;25.02;;
27489;SDS011;14925;51.026;13.752;2022-12-18T06:47:50;57.05;;;24.05;;
27489;SDS011;14925;51.026;13.752;2022-12-18T06:50:15;61.88;;;24.40;;
27489;SDS011;14925;51.026;13.752;2022-12-18T06:52:41;59.55;;;22.77;;
27489;SDS011;14925;51.026;13.752;2022-12-18T06:55:07;53.83;;;21.17;;
27489;SDS011;14925;51.026;13.752;2022-12-18T06:57:33;50.28;;;21.02;;
27489;SDS011;14925;51.026;13.752;2022-12-18T06:59:58;48.33;;;20.48;;
27489;SDS011;14925;51.026;13.752;2022-12-18T07:02:24;50.83;;;18.77;;
27489;SDS011;14925;51.026;13.752;2022-12-18T07:04:50;54.50;;;21.90;;
27489;SDS011;14925;51.026;13.752;2022-12-18T07:07:15;51.47;;;19.95;;
27489;SDS011;14925;51.026;13.752;2022-12-18T07:09:41;50.33;;;19.58;;
27489;SDS011;14925;51.026;13.752;2022-12-18T07:12:06;50.53;;;19.65;;
27489;SDS011;14925;51.026;13.752;2022-12-18T07:14:32;46.17;;;19.52;;
27489;SDS011;14925;51.026;13.752;2022-12-18T07:16:58;42.22;;;17.63;;
27489;SDS011;14925;51.026;13.752;2022-12-18T07:19:26;45.28;;;18.35;;
27489;SDS011;14925;51.026;13.752;2022-12-18T07:21:52;45.63;;;18.15;;
27489;SDS011;14925;51.026;13.752;2022-12-18T07:24:17;45.08;;;18.20;;
27489;SDS011;14925;51.026;13.752;2022-12-18T07:26:45;47.03;;;18.67;;
27489;SDS011;14925;51.026;13.752;2022-12-18T07:29:11;52.47;;;19.30;;
27489;SDS011;14925;51.026;13.752;2022-12-18T07:31:39;48.65;;;18.35;;
27489;SDS011;14925;51.026;13.752;2022-12-18T07:34:05;52.92;;;19.73;;
27489;SDS011;14925;51.026;13.752;2022-12-18T07:36:30;54.97;;;21.50;;
27489;SDS011;14925;51.026;13.752;2022-12-18T07:38:56;60.28;;;23.65;;
27489;SDS011;14925;51.026;13.752;2022-12-18T07:41:21;59.05;;;23.98;;
27489;SDS011;14925;51.026;13.752;2022-12-18T07:43:47;69.22;;;26.70;;
27489;SDS011;14925;51.026;13.752;2022-12-18T07:46:13;67.80;;;26.75;;
27489;SDS011;14925;51.026;13.752;2022-12-18T07:48:39;66.68;;;26.63;;
27489;SDS011;14925;51.026;13.752;2022-12-18T07:51:08;64.18;;;25.35;;
27489;SDS011;14925;51.026;13.752;2022-12-18T07:53:36;66.25;;;25.70;;
27489;SDS011;14925;51.026;13.752;2022-12-18T07:56:03;64.22;;;27.10;;
27489;SDS011;14925;51.026;13.752;2022-12-18T07:58:30;67.65;;;25.65;;
27489;SDS011;14925;51.026;13.752;2022-12-18T08:01:03;68.78;;;27.02;;
27489;SDS011;14925;51.026;13.752;2022-12-18T08:03:38;66.32;;;26.33;;
27489;SDS011;14925;51.026;13.752;2022-12-18T08:06:05;63.42;;;26.00;;
27489;SDS011;14925;51.026;13.752;2022-12-18T08:08:32;67.75;;;27.58;;
27489;SDS011;14925;51.026;13.752;2022-12-18T08:10:58;69.55;;;27.23;;
27489;SDS011;14925;51.026;13.752;2022-12-18T08:13:24;63.83;;;26.80;;
27489;SDS011;14925;51.026;13.752;2022-12-18T08:16:00;65.75;;;25.67;;
27489;SDS011;14925;51.026;13.752;2022-12-18T08:18:27;61.80;;;25.50;;
27489;SDS011;14925;51.026;13.752;2022-12-18T08:20:53;57.55;;;26.15;;
27489;SDS011;14925;51.026;13.752;2022-12-18T08:23:19;58.97;;;25.95;;
27489;SDS011;14925;51.026;13.752;2022-12-18T08:25:44;54.47;;;24.52;;
27489;SDS011;14925;51.026;13.752;2022-12-18T08:28:10;62.40;;;26.67;;
27489;SDS011;14925;51.026;13.752;2022-12-18T08:30:36;69.97;;;28.48;;
27489;SDS011;14925;51.026;13.752;2022-12-18T08:33:01;68.72;;;27.73;;
27489;SDS011;14925;51.026;13.752;2022-12-18T08:35:26;59.97;;;26.38;;
27489;SDS011;14925;51.026;13.752;2022-12-18T08:37:53;63.22;;;26.50;;
27489;SDS011;14925;51.026;13.752;2022-12-18T08:40:18;70.40;;;29.10;;
27489;SDS011;14925;51.026;13.752;2022-12-18T08:42:44;73.15;;;29.85;;
27489;SDS011;14925;51.026;13.752;2022-12-18T08:45:28;70.15;;;29.40;;
27489;SDS011;14925;51.026;13.752;2022-12-18T08:47:56;76.07;;;29.73;;
27489;SDS011;14925;51.026;13.752;2022-12-18T08:50:21;72.75;;;29.58;;
27489;SDS011;14925;51.026;13.752;2022-12-18T08:52:47;78.97;;;30.60;;
27489;SDS011;14925;51.026;13.752;2022-12-18T08:55:12;84.60;;;32.10;;
27489;SDS011;14925;51.026;13.752;2022-12-18T08:57:38;81.75;;;30.80;;
27489;SDS011;14925;51.026;13.752;2022-12-18T09:00:03;73.10;;;29.17;;
27489;SDS011;14925;51.026;13.752;2022-12-18T09:02:29;69.85;;;27.15;;
27489;SDS011;14925;51.026;13.752;2022-12-18T09:04:55;74.63;;;28.75;;
27489;SDS011;14925;51.026;13.752;2022-12-18T09:07:20;70.65;;;27.98;;
27489;SDS011;14925;51.026;13.752;2022-12-18T09:09:45;71.45;;;29.02;;
27489;SDS011;14925;51.026;13.752;2022-12-18T09:12:11;68.15;;;27.88;;
27489;SDS011;14925;51.026;13.752;2022-12-18T09:14:36;69.60;;;27.55;;
27489;SDS011;14925;51.026;13.752;2022-12-18T09:17:01;74.20;;;28.13;;
27489;SDS011;14925;51.026;13.752;2022-12-18T09:19:30;67.50;;;28.95;;
27489;SDS011;14925;51.026;13.752;2022-12-18T09:21:55;72.75;;;28.77;;
27489;SDS011;14925;51.026;13.752;2022-12-18T09:24:21;69.72;;;28.17;;
27489;SDS011;14925;51.026;13.752;2022-12-18T09:26:52;67.05;;;26.98;;
27489;SDS011;14925;51.026;13.752;2022-12-18T09:29:18;72.25;;;28.13;;
27489;SDS011;14925;51.026;13.752;2022-12-18T09:31:43;74.03;;;28.85;;
27489;SDS011;14925;51.026;13.752;2022-12-18T09:34:09;72.80;;;29.48;;
27489;SDS011;14925;51.026;13.752;2022-12-18T09:36:34;76.20;;;29.30;;
27489;SDS011;14925;51.026;13.752;2022-12-18T09:38:59;76.55;;;30.38;;
27489;SDS011;14925;51.026;13.752;2022-12-18T09:44:04;72.10;;;30.13;;
27489;SDS011;14925;51.026;13.752;2022-12-18T09:49:44;78.72;;;31.50;;
27489;SDS011;14925;51.026;13.752;2022-12-18T09:54:40;74.43;;;30.90;;
27489;SDS011;14925;51.026;13.752;2022-12-18T09:57:12;73.25;;;29.80;;
27489;SDS011;14925;51.026;13.752;2022-12-18T09:59:40;76.97;;;30.10;;
27489;SDS011;14925;51.026;13.752;2022-12-18T10:02:18;75.15;;;31.08;;
27489;SDS011;14925;51.026;13.752;2022-12-18T10:04:47;80.25;;;32.30;;
27489;SDS011;14925;51.026;13.752;2022-12-18T10:16:03;81.55;;;31.60;;
27489;SDS011;14925;51.026;13.752;2022-12-18T10:21:34;75.50;;;29.80;;
27489;SDS011;14925;51.026;13.752;2022-12-18T10:24:03;71.93;;;28.00;;
27489;SDS011;14925;51.026;13.752;2022-12-18T10:26:38;70.75;;;27.92;;
27489;SDS011;14925;51.026;13.752;2022-12-18T10:29:08;67.10;;;27.27;;
27489;SDS011;14925;51.026;13.752;2022-12-18T10:31:36;73.15;;;28.23;;
27489;SDS011;14925;51.026;13.752;2022-12-18T10:34:01;67.25;;;25.65;;
27489;SDS011;14925;51.026;13.752;2022-12-18T10:36:26;71.05;;;27.75;;
27489;SDS011;14925;51.026;13.752;2022-12-18T10:38:52;76.25;;;28.30;;
27489;SDS011;14925;51.026;13.752;2022-12-18T10:43:43;70.80;;;27.55;;
27489;SDS011;14925;51.026;13.752;2022-12-18T10:48:47;71.50;;;27.15;;
27489;SDS011;14925;51.026;13.752;2022-12-18T10:53:54;64.43;;;25.15;;
27489;SDS011;14925;51.026;13.752;2022-12-18T10:56:21;78.97;;;27.73;;
27489;SDS011;14925;51.026;13.752;2022-12-18T10:59:00;69.72;;;27.63;;
27489;SDS011;14925;51.026;13.752;2022-12-18T11:01:29;68.50;;;26.83;;
27489;SDS011;14925;51.026;13.752;2022-12-18T11:09:32;72.82;;;27.00;;
27489;SDS011;14925;51.026;13.752;2022-12-18T11:12:05;74.45;;;26.85;;
27489;SDS011;14925;51.026;13.752;2022-12-18T11:17:17;71.10;;;26.60;;
27489;SDS011;14925;51.026;13.752;2022-12-18T11:19:44;71.93;;;27.73;;
27489;SDS011;14925;51.026;13.752;2022-12-18T11:25:38;67.13;;;25.52;;
27489;SDS011;14925;51.026;13.752;2022-12-18T11:27:41;74.10;;;27.48;;
27489;SDS011;14925;51.026;13.752;2022-12-18T11:32:45;67.72;;;26.75;;
27489;SDS011;14925;51.026;13.752;2022-12-18T11:35:15;75.82;;;27.08;;
27489;SDS011;14925;51.026;13.752;2022-12-18T11:37:54;67.05;;;27.23;;
27489;SDS011;14925;51.026;13.752;2022-12-18T11:40:26;70.95;;;26.73;;
27489;SDS011;14925;51.026;13.752;2022-12-18T11:45:41;69.22;;;25.80;;
27489;SDS011;14925;51.026;13.752;2022-12-18T11:50:59;66.18;;;25.10;;
27489;SDS011;14925;51.026;13.752;2022-12-18T11:53:26;64.10;;;24.50;;
27489;SDS011;14925;51.026;13.752;2022-12-18T11:58:50;60.90;;;24.50;;
27489;SDS011;14925;51.026;13.752;2022-12-18T12:01:35;65.85;;;24.25;;
27489;SDS011;14925;51.026;13.752;2022-12-18T12:09:41;60.42;;;23.63;;
27489;SDS011;14925;51.026;13.752;2022-12-18T12:26:01;64.35;;;24.88;;
27489;SDS011;14925;51.026;13.752;2022-12-18T12:31:13;59.90;;;24.83;;
27489;SDS011;14925;51.026;13.752;2022-12-18T12:38:49;57.17;;;22.60;;
27489;SDS011;14925;51.026;13.752;2022-12-18T12:41:19;59.38;;;23.15;;
27489;SDS011;14925;51.026;13.752;2022-12-18T12:44:07;64.10;;;24.05;;
27489;SDS011;14925;51.026;13.752;2022-12-18T12:46:36;59.42;;;23.08;;
27489;SDS011;14925;51.026;13.752;2022-12-18T12:49:03;62.88;;;25.48;;
27489;SDS011;14925;51.026;13.752;2022-12-18T12:51:34;58.30;;;24.48;;
27489;SDS011;14925;51.026;13.752;2022-12-18T12:54:01;64.63;;;22.70;;
27489;SDS011;14925;51.026;13.752;2022-12-18T12:59:22;62.35;;;23.02;;
27489;SDS011;14925;51.026;13.752;2022-12-18T13:07:39;60.35;;;23.25;;
27489;SDS011;14925;51.026;13.752;2022-12-18T13:15:22;61.33;;;25.20;;
27489;SDS011;14925;51.026;13.752;2022-12-18T13:17:49;68.80;;;24.83;;
27489;SDS011;14925;51.026;13.752;2022-12-18T13:20:32;66.82;;;24.55;;
27489;SDS011;14925;51.026;13.752;2022-12-18T13:25:56;65.07;;;24.63;;
27489;SDS011;14925;51.026;13.752;2022-12-18T13:31:57;63.33;;;25.33;;
27489;SDS011;14925;51.026;13.752;2022-12-18T13:36:41;63.47;;;24.83;;
27489;SDS011;14925;51.026;13.752;2022-12-18T13:41:46;64.90;;;25.95;;
27489;SDS011;14925;51.026;13.752;2022-12-18T13:44:36;60.65;;;25.70;;
27489;SDS011;14925;51.026;13.752;2022-12-18T13:47:24;64.53;;;25.80;;
27489;SDS011;14925;51.026;13.752;2022-12-18T13:49:57;64.40;;;25.70;;
27489;SDS011;14925;51.026;13.752;2022-12-18T13:52:33;53.92;;;22.65;;
27489;SDS011;14925;51.026;13.752;2022-12-18T13:55:01;61.78;;;23.60;;
27489;SDS011;14925;51.026;13.752;2022-12-18T14:00:28;60.22;;;23.83;;
27489;SDS011;14925;51.026;13.752;2022-12-18T14:02:54;61.65;;;24.88;;
27489;SDS011;14925;51.026;13.752;2022-12-18T14:05:30;59.28;;;24.83;;
27489;SDS011;14925;51.026;13.752;2022-12-18T14:08:01;58.08;;;22.40;;
27489;SDS011;14925;51.026;13.752;2022-12-18T14:10:30;51.40;;;20.77;;
27489;SDS011;14925;51.026;13.752;2022-12-18T14:12:56;54.15;;;21.38;;
27489;SDS011;14925;51.026;13.752;2022-12-18T14:17:55;53.83;;;22.30;;
27489;SDS011;14925;51.026;13.752;2022-12-18T14:20:29;52.42;;;20.85;;
27489;SDS011;14925;51.026;13.752;2022-12-18T14:22:56;50.33;;;21.38;;
27489;SDS011;14925;51.026;13.752;2022-12-18T14:25:23;55.42;;;21.83;;
27489;SDS011;14925;51.026;13.752;2022-12-18T14:27:53;57.65;;;22.63;;
27489;SDS011;14925;51.026;13.752;2022-12-18T14:30:38;56.85;;;22.73;;
27489;SDS011;14925;51.026;13.752;2022-12-18T14:35:30;54.90;;;22.45;;
27489;SDS011;14925;51.026;13.752;2022-12-18T14:40:52;51.78;;;21.58;;
27489;SDS011;14925;51.026;13.752;2022-12-18T14:43:37;57.10;;;21.70;;
27489;SDS011;14925;51.026;13.752;2022-12-18T14:46:49;53.22;;;21.35;;
27489;SDS011;14925;51.026;13.752;2022-12-18T14:51:53;59.30;;;22.15;;
27489;SDS011;14925;51.026;13.752;2022-12-18T14:54:20;52.05;;;21.17;;
27489;SDS011;14925;51.026;13.752;2022-12-18T14:56:48;53.10;;;21.90;;
27489;SDS011;14925;51.026;13.752;2022-12-18T14:59:19;55.10;;;22.13;;
27489;SDS011;14925;51.026;13.752;2022-12-18T15:04:35;59.83;;;23.50;;
27489;SDS011;14925;51.026;13.752;2022-12-18T15:07:09;60.55;;;21.10;;
27489;SDS011;14925;51.026;13.752;2022-12-18T15:09:39;51.08;;;20.48;;
27489;SDS011;14925;51.026;13.752;2022-12-18T15:12:18;52.85;;;20.05;;
27489;SDS011;14925;51.026;13.752;2022-12-18T15:14:47;55.13;;;21.80;;
27489;SDS011;14925;51.026;13.752;2022-12-18T15:17:17;59.05;;;23.23;;
27489;SDS011;14925;51.026;13.752;2022-12-18T15:19:47;58.20;;;23.60;;
27489;SDS011;14925;51.026;13.752;2022-12-18T15:22:20;57.53;;;24.13;;
27489;SDS011;14925;51.026;13.752;2022-12-18T15:24:48;57.53;;;23.58;;
27489;SDS011;14925;51.026;13.752;2022-12-18T15:27:28;66.20;;;23.70;;
27489;SDS011;14925;51.026;13.752;2022-12-18T15:29:59;60.22;;;22.48;;
27489;SDS011;14925;51.026;13.752;2022-12-18T15:32:36;60.92;;;22.52;;
27489;SDS011;14925;51.026;13.752;2022-12-18T15:37:38;57.55;;;21.85;;
27489;SDS011;14925;51.026;13.752;2022-12-18T15:40:07;62.88;;;22.65;;
27489;SDS011;14925;51.026;13.752;2022-12-18T15:42:33;57.83;;;22.75;;
27489;SDS011;14925;51.026;13.752;2022-12-18T15:47:43;59.03;;;21.42;;
27489;SDS011;14925;51.026;13.752;2022-12-18T15:50:09;62.33;;;23.25;;
27489;SDS011;14925;51.026;13.752;2022-12-18T15:52:41;60.03;;;22.35;;
27489;SDS011;14925;51.026;13.752;2022-12-18T15:55:18;46.30;;;17.90;;
27489;SDS011;14925;51.026;13.752;2022-12-18T15:58:04;66.72;;;23.92;;
27489;SDS011;14925;51.026;13.752;2022-12-18T16:00:31;58.67;;;22.17;;
27489;SDS011;14925;51.026;13.752;2022-12-18T16:02:58;63.38;;;23.10;;
27489;SDS011;14925;51.026;13.752;2022-12-18T16:05:23;59.90;;;23.30;;
27489;SDS011;14925;51.026;13.752;2022-12-18T16:07:49;61.72;;;22.15;;
27489;SDS011;14925;51.026;13.752;2022-12-18T16:10:14;63.03;;;24.27;;
27489;SDS011;14925;51.026;13.752;2022-12-18T16:12:40;61.22;;;22.58;;
27489;SDS011;14925;51.026;13.752;2022-12-18T16:15:06;64.35;;;23.30;;
27489;SDS011;14925;51.026;13.752;2022-12-18T16:17:32;60.00;;;23.67;;
27489;SDS011;14925;51.026;13.752;2022-12-18T16:19:57;69.25;;;26.17;;
27489;SDS011;14925;51.026;13.752;2022-12-18T16:22:24;60.60;;;24.20;;
27489;SDS011;14925;51.026;13.752;2022-12-18T16:24:52;67.78;;;24.67;;
27489;SDS011;14925;51.026;13.752;2022-12-18T16:27:18;63.10;;;22.48;;
27489;SDS011;14925;51.026;13.752;2022-12-18T16:29:47;66.75;;;23.90;;
27489;SDS011;14925;51.026;13.752;2022-12-18T16:32:14;65.25;;;24.13;;
27489;SDS011;14925;51.026;13.752;2022-12-18T16:34:41;70.50;;;25.40;;
27489;SDS011;14925;51.026;13.752;2022-12-18T16:37:07;65.07;;;23.85;;
27489;SDS011;14925;51.026;13.752;2022-12-18T16:39:34;62.55;;;21.30;;
27489;SDS011;14925;51.026;13.752;2022-12-18T16:42:00;62.92;;;22.90;;